sensor_id;sensor_type;location;lat;lon;timestamp;pressure;altitude;pressure_sealevel;temperature;humidity
29169;BME280;16219;42.864;23.360;2023-09-19T00:00:18;96226.16;;;15.31;100.00
29169;BME280;16219;42.864;23.360;2023-09-19T00:02:51;96267.97;;;15.43;100.00
29169;BME280;16219;42.864;23.360;2023-09-19T00:05:18;96258.63;;;15.37;100.00
29169;BME280;16219;42.864;23.360;2023-09-19T00:07:51;96275.38;;;15.49;100.00
29169;BME280;16219;42.864;23.360;2023-09-19T00:10:20;96282.25;;;15.38;100.00
29169;BME280;16219;42.864;23.360;2023-09-19T00:12:51;96273.72;;;15.45;100.00
29169;BME280;16219;42.864;23.360;2023-09-19T00:15:21;96282.94;;;15.47;100.00
29169;BME280;16219;42.864;23.360;2023-09-19T00:17:48;96272.81;;;15.41;100.00
29169;BME280;16219;42.864;23.360;2023-09-19T00:20:18;96262.81;;;15.25;100.00
29169;BME280;16219;42.864;23.360;2023-09-19T00:22:47;96266.69;;;15.28;100.00
29169;BME280;16219;42.864;23.360;2023-09-19T00:25:15;96266.03;;;15.31;100.00
29169;BME280;16219;42.864;23.360;2023-09-19T00:27:42;96271.00;;;15.20;100.00
29169;BME280;16219;42.864;23.360;2023-09-19T00:30:12;96266.13;;;15.22;100.00
29169;BME280;16219;42.864;23.360;2023-09-19T00:32:45;96225.53;;;15.01;100.00
29169;BME280;16219;42.864;23.360;2023-09-19T00:35:14;96258.06;;;15.31;100.00
29169;BME280;16219;42.864;23.360;2023-09-19T00:37:44;96244.75;;;15.19;100.00
29169;BME280;16219;42.864;23.360;2023-09-19T00:40:12;96259.50;;;15.29;100.00
29169;BME280;16219;42.864;23.360;2023-09-19T00:42:42;96238.28;;;15.08;100.00
29169;BME280;16219;42.864;23.360;2023-09-19T00:45:11;96261.59;;;15.23;100.00
29169;BME280;16219;42.864;23.360;2023-09-19T00:47:40;96243.84;;;15.15;100.00
29169;BME280;16219;42.864;23.360;2023-09-19T00:50:08;96254.03;;;15.13;100.00
29169;BME280;16219;42.864;23.360;2023-09-19T00:52:38;96237.13;;;15.17;100.00
29169;BME280;16219;42.864;23.360;2023-09-19T00:55:08;96237.84;;;15.06;100.00
29169;BME280;16219;42.864;23.360;2023-09-19T00:57:37;96248.72;;;15.13;100.00
29169;BME280;16219;42.864;23.360;2023-09-19T01:00:06;96241.41;;;15.10;100.00
29169;BME280;16219;42.864;23.360;2023-09-19T01:02:35;96243.50;;;15.04;100.00
29169;BME280;16219;42.864;23.360;2023-09-19T01:05:03;96250.50;;;15.09;100.00
29169;BME280;16219;42.864;23.360;2023-09-19T01:07:32;96245.03;;;15.05;100.00
29169;BME280;16219;42.864;23.360;2023-09-19T01:10:00;96249.13;;;15.03;100.00
29169;BME280;16219;42.864;23.360;2023-09-19T01:12:32;96244.72;;;15.07;100.00
29169;BME280;16219;42.864;23.360;2023-09-19T01:15:08;96244.59;;;14.82;100.00
29169;BME280;16219;42.864;23.360;2023-09-19T01:17:46;96254.84;;;14.92;100.00
29169;BME280;16219;42.864;23.360;2023-09-19T01:20:33;96239.00;;;14.84;100.00
29169;BME280;16219;42.864;23.360;2023-09-19T01:23:10;96251.72;;;14.90;100.00
29169;BME280;16219;42.864;23.360;2023-09-19T01:26:06;96254.72;;;14.89;100.00
29169;BME280;16219;42.864;23.360;2023-09-19T01:28:45;96247.03;;;14.75;100.00
29169;BME280;16219;42.864;23.360;2023-09-19T01:31:21;96251.44;;;14.71;100.00
29169;BME280;16219;42.864;23.360;2023-09-19T01:33:57;96247.16;;;14.79;100.00
29169;BME280;16219;42.864;23.360;2023-09-19T01:36:29;96234.47;;;14.63;100.00
29169;BME280;16219;42.864;23.360;2023-09-19T01:38:57;96245.34;;;14.70;100.00
29169;BME280;16219;42.864;23.360;2023-09-19T01:41:33;96239.28;;;14.70;100.00
29169;BME280;16219;42.864;23.360;2023-09-19T01:44:06;96257.78;;;14.58;100.00
29169;BME280;16219;42.864;23.360;2023-09-19T01:46:40;96251.09;;;14.52;100.00
29169;BME280;16219;42.864;23.360;2023-09-19T01:49:33;96258.03;;;14.65;100.00
29169;BME280;16219;42.864;23.360;2023-09-19T01:52:09;96252.84;;;14.68;100.00
29169;BME280;16219;42.864;23.360;2023-09-19T01:54:43;96254.28;;;14.66;100.00
29169;BME280;16219;42.864;23.360;2023-09-19T01:57:17;96263.88;;;14.58;100.00
29169;BME280;16219;42.864;23.360;2023-09-19T01:59:48;96255.31;;;14.53;100.00
29169;BME280;16219;42.864;23.360;2023-09-19T02:02:20;96266.25;;;14.51;100.00
29169;BME280;16219;42.864;23.360;2023-09-19T02:04:49;96235.91;;;14.31;100.00
29169;BME280;16219;42.864;23.360;2023-09-19T02:07:16;96257.22;;;14.43;100.00
29169;BME280;16219;42.864;23.360;2023-09-19T02:09:44;96253.94;;;14.46;100.00
29169;BME280;16219;42.864;23.360;2023-09-19T02:12:11;96249.00;;;14.36;100.00
29169;BME280;16219;42.864;23.360;2023-09-19T02:14:39;96255.69;;;14.42;100.00
29169;BME280;16219;42.864;23.360;2023-09-19T02:17:06;96253.50;;;14.44;100.00
29169;BME280;16219;42.864;23.360;2023-09-19T02:19:38;96242.97;;;14.27;100.00
29169;BME280;16219;42.864;23.360;2023-09-19T02:22:07;96254.97;;;14.33;100.00
29169;BME280;16219;42.864;23.360;2023-09-19T02:24:36;96238.97;;;14.21;100.00
29169;BME280;16219;42.864;23.360;2023-09-19T02:27:04;96244.41;;;14.24;100.00
29169;BME280;16219;42.864;23.360;2023-09-19T02:29:31;96200.09;;;13.95;100.00
29169;BME280;16219;42.864;23.360;2023-09-19T02:32:00;96243.75;;;14.28;100.00
29169;BME280;16219;42.864;23.360;2023-09-19T02:34:45;96242.84;;;14.23;100.00
29169;BME280;16219;42.864;23.360;2023-09-19T02:37:13;96217.34;;;14.10;100.00
29169;BME280;16219;42.864;23.360;2023-09-19T02:39:42;96221.34;;;14.16;100.00
29169;BME280;16219;42.864;23.360;2023-09-19T02:42:11;96236.03;;;14.14;100.00
29169;BME280;16219;42.864;23.360;2023-09-19T02:44:38;96224.06;;;14.08;100.00
29169;BME280;16219;42.864;23.360;2023-09-19T02:47:06;96224.97;;;14.12;100.00
29169;BME280;16219;42.864;23.360;2023-09-19T02:49:34;96207.88;;;14.00;100.00
29169;BME280;16219;42.864;23.360;2023-09-19T02:52:04;96228.44;;;14.04;100.00
29169;BME280;16219;42.864;23.360;2023-09-19T02:54:33;96205.78;;;13.85;100.00
29169;BME280;16219;42.864;23.360;2023-09-19T02:57:00;96237.66;;;14.06;100.00
29169;BME280;16219;42.864;23.360;2023-09-19T02:59:29;96234.84;;;14.03;100.00
29169;BME280;16219;42.864;23.360;2023-09-19T03:01:58;96216.72;;;14.05;100.00
29169;BME280;16219;42.864;23.360;2023-09-19T03:04:26;96174.69;;;13.65;100.00
29169;BME280;16219;42.864;23.360;2023-09-19T03:06:54;96214.81;;;13.84;100.00
29169;BME280;16219;42.864;23.360;2023-09-19T03:09:28;96192.97;;;13.87;100.00
29169;BME280;16219;42.864;23.360;2023-09-19T03:11:55;96217.03;;;13.82;100.00
29169;BME280;16219;42.864;23.360;2023-09-19T03:14:23;96161.16;;;13.58;100.00
29169;BME280;16219;42.864;23.360;2023-09-19T03:16:50;96198.56;;;13.94;100.00
29169;BME280;16219;42.864;23.360;2023-09-19T03:19:18;96164.34;;;13.72;100.00
29169;BME280;16219;42.864;23.360;2023-09-19T03:21:47;96167.47;;;13.74;100.00
29169;BME280;16219;42.864;23.360;2023-09-19T03:24:17;96194.69;;;13.83;100.00
29169;BME280;16219;42.864;23.360;2023-09-19T03:26:45;96195.69;;;13.99;100.00
29169;BME280;16219;42.864;23.360;2023-09-19T03:29:14;96205.00;;;14.06;100.00
29169;BME280;16219;42.864;23.360;2023-09-19T03:31:44;96196.63;;;14.04;100.00
29169;BME280;16219;42.864;23.360;2023-09-19T03:34:12;96186.84;;;13.95;100.00
29169;BME280;16219;42.864;23.360;2023-09-19T03:36:39;96184.66;;;13.97;100.00
29169;BME280;16219;42.864;23.360;2023-09-19T03:39:08;96198.56;;;13.94;100.00
29169;BME280;16219;42.864;23.360;2023-09-19T03:41:36;96214.19;;;13.87;100.00
29169;BME280;16219;42.864;23.360;2023-09-19T03:44:06;96204.41;;;13.79;100.00
29169;BME280;16219;42.864;23.360;2023-09-19T03:46:33;96201.47;;;13.72;100.00
29169;BME280;16219;42.864;23.360;2023-09-19T03:49:02;96222.31;;;13.82;100.00
29169;BME280;16219;42.864;23.360;2023-09-19T03:51:29;96226.09;;;13.81;100.00
29169;BME280;16219;42.864;23.360;2023-09-19T03:53:57;96168.88;;;13.33;100.00
29169;BME280;16219;42.864;23.360;2023-09-19T03:56:24;96223.44;;;13.81;100.00
29169;BME280;16219;42.864;23.360;2023-09-19T03:58:51;96217.84;;;13.74;100.00
29169;BME280;16219;42.864;23.360;2023-09-19T04:01:20;96237.22;;;13.66;100.00
29169;BME280;16219;42.864;23.360;2023-09-19T04:03:47;96207.13;;;13.62;100.00
29169;BME280;16219;42.864;23.360;2023-09-19T04:06:16;96228.13;;;13.75;100.00
29169;BME280;16219;42.864;23.360;2023-09-19T04:08:44;96230.63;;;13.72;100.00
29169;BME280;16219;42.864;23.360;2023-09-19T04:11:12;96236.53;;;13.78;100.00
29169;BME280;16219;42.864;23.360;2023-09-19T04:13:39;96226.25;;;13.76;100.00
29169;BME280;16219;42.864;23.360;2023-09-19T04:16:06;96224.25;;;13.73;100.00
29169;BME280;16219;42.864;23.360;2023-09-19T04:18:36;96184.91;;;13.45;100.00
29169;BME280;16219;42.864;23.360;2023-09-19T04:21:06;96237.94;;;13.75;100.00
29169;BME280;16219;42.864;23.360;2023-09-19T04:23:34;96237.31;;;13.78;100.00
29169;BME280;16219;42.864;23.360;2023-09-19T04:26:01;96247.94;;;13.78;100.00
29169;BME280;16219;42.864;23.360;2023-09-19T04:28:30;96235.91;;;13.81;100.00
29169;BME280;16219;42.864;23.360;2023-09-19T04:30:58;96225.94;;;13.78;100.00
29169;BME280;16219;42.864;23.360;2023-09-19T04:33:25;96236.75;;;14.02;100.00
29169;BME280;16219;42.864;23.360;2023-09-19T04:35:55;96246.69;;;14.05;100.00
29169;BME280;16219;42.864;23.360;2023-09-19T04:38:22;96237.00;;;14.09;100.00
29169;BME280;16219;42.864;23.360;2023-09-19T04:40:49;96243.97;;;14.14;100.00
29169;BME280;16219;42.864;23.360;2023-09-19T04:43:17;96240.16;;;14.03;100.00
29169;BME280;16219;42.864;23.360;2023-09-19T04:45:44;96219.78;;;13.94;100.00
29169;BME280;16219;42.864;23.360;2023-09-19T04:48:12;96214.03;;;14.13;100.00
29169;BME280;16219;42.864;23.360;2023-09-19T04:50:41;96212.41;;;14.21;100.00
29169;BME280;16219;42.864;23.360;2023-09-19T04:53:10;96226.47;;;14.42;100.00
29169;BME280;16219;42.864;23.360;2023-09-19T04:55:38;96189.66;;;14.20;100.00
29169;BME280;16219;42.864;23.360;2023-09-19T04:58:05;96193.00;;;14.29;100.00
29169;BME280;16219;42.864;23.360;2023-09-19T05:00:32;96221.06;;;14.60;100.00
29169;BME280;16219;42.864;23.360;2023-09-19T05:03:00;96200.28;;;14.62;100.00
29169;BME280;16219;42.864;23.360;2023-09-19T05:05:29;96195.66;;;14.71;100.00
29169;BME280;16219;42.864;23.360;2023-09-19T05:07:56;96203.25;;;14.93;100.00
29169;BME280;16219;42.864;23.360;2023-09-19T05:10:26;96218.13;;;15.07;100.00
29169;BME280;16219;42.864;23.360;2023-09-19T05:12:53;96212.81;;;15.07;100.00
29169;BME280;16219;42.864;23.360;2023-09-19T05:15:21;96218.38;;;15.14;100.00
29169;BME280;16219;42.864;23.360;2023-09-19T05:17:48;96213.84;;;15.14;100.00
29169;BME280;16219;42.864;23.360;2023-09-19T05:20:17;96210.81;;;15.04;100.00
29169;BME280;16219;42.864;23.360;2023-09-19T05:22:50;96186.91;;;15.04;100.00
29169;BME280;16219;42.864;23.360;2023-09-19T05:25:25;96210.13;;;15.40;100.00
29169;BME280;16219;42.864;23.360;2023-09-19T05:27:56;96209.78;;;15.41;100.00
29169;BME280;16219;42.864;23.360;2023-09-19T05:30:25;96198.28;;;15.62;100.00
29169;BME280;16219;42.864;23.360;2023-09-19T05:32:53;96152.19;;;15.45;100.00
29169;BME280;16219;42.864;23.360;2023-09-19T05:35:22;96200.75;;;15.91;100.00
29169;BME280;16219;42.864;23.360;2023-09-19T05:37:50;96198.97;;;16.08;100.00
29169;BME280;16219;42.864;23.360;2023-09-19T05:40:18;96200.50;;;16.09;100.00
29169;BME280;16219;42.864;23.360;2023-09-19T05:42:47;96181.75;;;16.17;100.00
29169;BME280;16219;42.864;23.360;2023-09-19T05:45:16;96186.47;;;16.36;100.00
29169;BME280;16219;42.864;23.360;2023-09-19T05:47:48;96196.13;;;16.41;100.00
29169;BME280;16219;42.864;23.360;2023-09-19T05:50:16;96182.25;;;16.35;100.00
29169;BME280;16219;42.864;23.360;2023-09-19T05:52:51;96195.22;;;16.49;100.00
29169;BME280;16219;42.864;23.360;2023-09-19T05:55:19;96189.66;;;16.42;100.00
29169;BME280;16219;42.864;23.360;2023-09-19T05:57:51;96195.75;;;16.55;100.00
29169;BME280;16219;42.864;23.360;2023-09-19T06:00:18;96177.44;;;16.53;100.00
29169;BME280;16219;42.864;23.360;2023-09-19T06:02:50;96192.69;;;16.68;100.00
29169;BME280;16219;42.864;23.360;2023-09-19T06:05:17;96176.78;;;16.72;100.00
29169;BME280;16219;42.864;23.360;2023-09-19T06:07:45;96164.41;;;16.64;100.00
29169;BME280;16219;42.864;23.360;2023-09-19T06:10:12;96159.13;;;16.52;100.00
29169;BME280;16219;42.864;23.360;2023-09-19T06:12:40;96173.94;;;16.65;100.00
29169;BME280;16219;42.864;23.360;2023-09-19T06:15:12;96184.91;;;16.76;100.00
29169;BME280;16219;42.864;23.360;2023-09-19T06:17:41;96162.94;;;16.79;100.00
29169;BME280;16219;42.864;23.360;2023-09-19T06:20:08;96170.94;;;16.94;100.00
29169;BME280;16219;42.864;23.360;2023-09-19T06:22:41;96173.13;;;17.05;100.00
29169;BME280;16219;42.864;23.360;2023-09-19T06:25:09;96166.41;;;17.11;100.00
29169;BME280;16219;42.864;23.360;2023-09-19T06:27:38;96173.16;;;17.20;100.00
29169;BME280;16219;42.864;23.360;2023-09-19T06:30:09;96171.06;;;17.30;100.00
29169;BME280;16219;42.864;23.360;2023-09-19T06:32:38;96158.44;;;17.42;100.00
29169;BME280;16219;42.864;23.360;2023-09-19T06:35:06;96163.91;;;17.49;100.00
29169;BME280;16219;42.864;23.360;2023-09-19T06:37:34;96167.19;;;17.59;100.00
29169;BME280;16219;42.864;23.360;2023-09-19T06:40:06;96160.88;;;17.67;100.00
29169;BME280;16219;42.864;23.360;2023-09-19T06:42:34;96159.28;;;17.78;100.00
29169;BME280;16219;42.864;23.360;2023-09-19T06:45:04;96163.81;;;17.93;100.00
29169;BME280;16219;42.864;23.360;2023-09-19T06:47:31;96165.94;;;18.04;100.00
29169;BME280;16219;42.864;23.360;2023-09-19T06:50:00;96167.63;;;18.12;100.00
29169;BME280;16219;42.864;23.360;2023-09-19T06:52:28;96162.09;;;18.20;100.00
29169;BME280;16219;42.864;23.360;2023-09-19T06:54:55;96170.34;;;18.31;100.00
29169;BME280;16219;42.864;23.360;2023-09-19T06:57:22;96168.34;;;18.47;100.00
29169;BME280;16219;42.864;23.360;2023-09-19T06:59:50;96169.63;;;18.54;100.00
29169;BME280;16219;42.864;23.360;2023-09-19T07:02:17;96179.34;;;18.62;100.00
29169;BME280;16219;42.864;23.360;2023-09-19T07:04:45;96177.31;;;18.75;100.00
29169;BME280;16219;42.864;23.360;2023-09-19T07:07:14;96172.31;;;18.92;100.00
29169;BME280;16219;42.864;23.360;2023-09-19T07:09:41;96165.50;;;18.95;100.00
29169;BME280;16219;42.864;23.360;2023-09-19T07:12:08;96169.63;;;19.15;100.00
29169;BME280;16219;42.864;23.360;2023-09-19T07:14:37;96174.66;;;19.17;100.00
29169;BME280;16219;42.864;23.360;2023-09-19T07:17:04;96160.66;;;19.27;100.00
29169;BME280;16219;42.864;23.360;2023-09-19T07:19:31;96160.94;;;19.41;100.00
29169;BME280;16219;42.864;23.360;2023-09-19T07:21:58;96165.53;;;19.44;100.00
29169;BME280;16219;42.864;23.360;2023-09-19T07:24:30;96161.84;;;19.53;100.00
29169;BME280;16219;42.864;23.360;2023-09-19T07:26:57;96148.84;;;19.51;100.00
29169;BME280;16219;42.864;23.360;2023-09-19T07:29:24;96163.66;;;19.68;100.00
29169;BME280;16219;42.864;23.360;2023-09-19T07:31:51;96164.09;;;19.73;100.00
29169;BME280;16219;42.864;23.360;2023-09-19T07:34:19;96163.84;;;19.82;100.00
29169;BME280;16219;42.864;23.360;2023-09-19T07:36:48;96162.06;;;19.90;100.00
29169;BME280;16219;42.864;23.360;2023-09-19T07:39:16;96171.03;;;20.01;100.00
29169;BME280;16219;42.864;23.360;2023-09-19T07:41:44;96173.72;;;20.05;100.00
29169;BME280;16219;42.864;23.360;2023-09-19T07:44:12;96170.84;;;20.17;100.00
29169;BME280;16219;42.864;23.360;2023-09-19T07:46:39;96172.56;;;20.32;100.00
29169;BME280;16219;42.864;23.360;2023-09-19T07:49:06;96153.72;;;20.25;100.00
29169;BME280;16219;42.864;23.360;2023-09-19T07:51:33;96153.53;;;20.11;100.00
29169;BME280;16219;42.864;23.360;2023-09-19T07:54:01;96163.75;;;20.32;100.00
29169;BME280;16219;42.864;23.360;2023-09-19T07:56:28;96166.63;;;20.46;100.00
29169;BME280;16219;42.864;23.360;2023-09-19T07:58:59;96167.16;;;20.59;100.00
29169;BME280;16219;42.864;23.360;2023-09-19T08:01:26;96158.06;;;20.67;100.00
29169;BME280;16219;42.864;23.360;2023-09-19T08:03:53;96160.41;;;20.72;100.00
29169;BME280;16219;42.864;23.360;2023-09-19T08:06:20;96141.78;;;20.83;100.00
29169;BME280;16219;42.864;23.360;2023-09-19T08:08:50;96146.44;;;20.89;100.00
29169;BME280;16219;42.864;23.360;2023-09-19T08:11:19;96147.34;;;21.04;100.00
29169;BME280;16219;42.864;23.360;2023-09-19T08:13:47;96153.59;;;21.19;100.00
29169;BME280;16219;42.864;23.360;2023-09-19T08:16:16;96149.44;;;21.21;100.00
29169;BME280;16219;42.864;23.360;2023-09-19T08:18:47;96144.03;;;21.18;100.00
29169;BME280;16219;42.864;23.360;2023-09-19T08:21:14;96101.72;;;21.01;100.00
29169;BME280;16219;42.864;23.360;2023-09-19T08:23:41;96130.75;;;21.32;100.00
29169;BME280;16219;42.864;23.360;2023-09-19T08:26:09;96122.66;;;21.29;100.00
29169;BME280;16219;42.864;23.360;2023-09-19T08:28:36;96125.88;;;21.49;100.00
29169;BME280;16219;42.864;23.360;2023-09-19T08:31:07;96122.75;;;21.39;100.00
29169;BME280;16219;42.864;23.360;2023-09-19T08:33:37;96131.25;;;21.49;100.00
29169;BME280;16219;42.864;23.360;2023-09-19T08:36:04;96132.44;;;21.51;100.00
29169;BME280;16219;42.864;23.360;2023-09-19T08:38:33;96135.91;;;21.55;100.00
29169;BME280;16219;42.864;23.360;2023-09-19T08:41:05;96129.81;;;21.58;100.00
29169;BME280;16219;42.864;23.360;2023-09-19T08:43:32;96132.91;;;21.64;100.00
29169;BME280;16219;42.864;23.360;2023-09-19T08:46:10;96108.41;;;21.73;98.53
29169;BME280;16219;42.864;23.360;2023-09-19T08:48:45;96110.72;;;21.74;99.42
29169;BME280;16219;42.864;23.360;2023-09-19T08:51:18;96103.88;;;21.80;99.88
29169;BME280;16219;42.864;23.360;2023-09-19T08:53:51;96114.34;;;22.03;98.26
29169;BME280;16219;42.864;23.360;2023-09-19T08:56:20;96119.75;;;22.10;94.54
29169;BME280;16219;42.864;23.360;2023-09-19T08:58:51;96115.63;;;22.27;100.00
29169;BME280;16219;42.864;23.360;2023-09-19T09:01:20;96107.66;;;22.52;100.00
29169;BME280;16219;42.864;23.360;2023-09-19T09:03:53;96116.56;;;22.74;90.25
29169;BME280;16219;42.864;23.360;2023-09-19T09:06:22;96117.31;;;22.75;87.12
29169;BME280;16219;42.864;23.360;2023-09-19T09:08:50;96111.63;;;22.98;87.08
29169;BME280;16219;42.864;23.360;2023-09-19T09:11:18;96096.25;;;23.02;86.55
29169;BME280;16219;42.864;23.360;2023-09-19T09:13:46;96107.78;;;23.27;87.69
29169;BME280;16219;42.864;23.360;2023-09-19T09:16:14;96110.47;;;23.27;85.25
29169;BME280;16219;42.864;23.360;2023-09-19T09:18:44;96103.56;;;23.33;82.82
29169;BME280;16219;42.864;23.360;2023-09-19T09:21:13;96105.88;;;23.42;89.03
29169;BME280;16219;42.864;23.360;2023-09-19T09:23:41;96099.72;;;23.41;82.03
29169;BME280;16219;42.864;23.360;2023-09-19T09:26:08;96098.16;;;23.40;85.65
29169;BME280;16219;42.864;23.360;2023-09-19T09:28:35;96092.41;;;23.35;83.50
29169;BME280;16219;42.864;23.360;2023-09-19T09:31:04;96092.03;;;23.29;83.13
29169;BME280;16219;42.864;23.360;2023-09-19T09:33:35;96086.28;;;23.20;88.88
29169;BME280;16219;42.864;23.360;2023-09-19T09:36:03;96075.13;;;23.25;88.84
29169;BME280;16219;42.864;23.360;2023-09-19T09:38:45;96040.91;;;23.08;91.22
29169;BME280;16219;42.864;23.360;2023-09-19T09:41:15;96068.19;;;23.24;91.54
29169;BME280;16219;42.864;23.360;2023-09-19T09:43:53;96068.97;;;23.14;89.29
29169;BME280;16219;42.864;23.360;2023-09-19T09:46:21;96058.56;;;23.05;89.85
29169;BME280;16219;42.864;23.360;2023-09-19T09:49:05;96076.28;;;23.17;93.50
29169;BME280;16219;42.864;23.360;2023-09-19T09:51:59;96077.03;;;23.07;90.80
29169;BME280;16219;42.864;23.360;2023-09-19T09:54:28;96068.94;;;22.92;91.72
29169;BME280;16219;42.864;23.360;2023-09-19T09:57:03;96075.09;;;22.97;90.63
29169;BME280;16219;42.864;23.360;2023-09-19T10:00:00;96072.78;;;22.91;88.39
29169;BME280;16219;42.864;23.360;2023-09-19T10:02:42;96068.97;;;23.07;93.23
29169;BME280;16219;42.864;23.360;2023-09-19T10:05:13;96069.75;;;23.11;87.31
29169;BME280;16219;42.864;23.360;2023-09-19T10:07:46;96054.34;;;23.08;88.54
29169;BME280;16219;42.864;23.360;2023-09-19T10:10:29;96067.44;;;23.13;87.50
29169;BME280;16219;42.864;23.360;2023-09-19T10:13:05;96058.56;;;23.23;92.03
29169;BME280;16219;42.864;23.360;2023-09-19T10:15:33;96068.56;;;23.44;93.33
29169;BME280;16219;42.864;23.360;2023-09-19T10:18:04;96064.69;;;23.56;95.16
29169;BME280;16219;42.864;23.360;2023-09-19T10:20:34;96061.59;;;23.61;87.85
29169;BME280;16219;42.864;23.360;2023-09-19T10:23:06;96052.75;;;23.57;83.07
29169;BME280;16219;42.864;23.360;2023-09-19T10:25:40;96042.00;;;23.46;82.45
29169;BME280;16219;42.864;23.360;2023-09-19T10:28:09;96056.59;;;23.63;84.29
29169;BME280;16219;42.864;23.360;2023-09-19T10:30:38;96031.22;;;23.53;85.29
29169;BME280;16219;42.864;23.360;2023-09-19T10:33:11;96041.22;;;23.67;88.20
29169;BME280;16219;42.864;23.360;2023-09-19T10:35:39;96042.72;;;23.82;87.87
29169;BME280;16219;42.864;23.360;2023-09-19T10:38:10;95983.91;;;23.49;85.56
29169;BME280;16219;42.864;23.360;2023-09-19T10:40:39;96040.44;;;23.77;81.54
29169;BME280;16219;42.864;23.360;2023-09-19T10:43:13;96040.41;;;23.84;82.63
29169;BME280;16219;42.864;23.360;2023-09-19T10:45:44;96000.41;;;23.61;79.86
29169;BME280;16219;42.864;23.360;2023-09-19T10:48:16;96038.81;;;23.98;89.19
29169;BME280;16219;42.864;23.360;2023-09-19T10:50:47;96039.56;;;24.05;81.99
29169;BME280;16219;42.864;23.360;2023-09-19T10:53:16;96022.22;;;24.06;81.32
29169;BME280;16219;42.864;23.360;2023-09-19T10:55:54;96024.81;;;24.24;85.20
29169;BME280;16219;42.864;23.360;2023-09-19T10:58:27;96016.31;;;24.33;85.84
29169;BME280;16219;42.864;23.360;2023-09-19T11:00:56;96010.16;;;24.29;83.05
29169;BME280;16219;42.864;23.360;2023-09-19T11:03:28;96024.75;;;24.46;82.00
29169;BME280;16219;42.864;23.360;2023-09-19T11:06:17;96018.91;;;24.51;76.60
29169;BME280;16219;42.864;23.360;2023-09-19T11:08:54;96009.31;;;24.46;83.97
29169;BME280;16219;42.864;23.360;2023-09-19T11:14:37;96020.41;;;24.59;76.34
29169;BME280;16219;42.864;23.360;2023-09-19T11:20:20;96019.34;;;24.46;72.28
29169;BME280;16219;42.864;23.360;2023-09-19T11:23:23;96018.13;;;24.54;76.74
29169;BME280;16219;42.864;23.360;2023-09-19T11:25:53;96004.22;;;24.59;81.32
29169;BME280;16219;42.864;23.360;2023-09-19T11:28:35;95998.44;;;24.64;78.26
29169;BME280;16219;42.864;23.360;2023-09-19T11:34:43;95985.13;;;24.87;76.10
29169;BME280;16219;42.864;23.360;2023-09-19T11:40:33;95968.84;;;25.39;81.18
29169;BME280;16219;42.864;23.360;2023-09-19T11:43:34;95964.38;;;25.60;72.09
29169;BME280;16219;42.864;23.360;2023-09-19T11:46:05;95962.13;;;25.55;75.48
29169;BME280;16219;42.864;23.360;2023-09-19T11:48:32;95936.09;;;25.37;75.59
29169;BME280;16219;42.864;23.360;2023-09-19T11:51:11;95957.53;;;25.52;74.52
29169;BME280;16219;42.864;23.360;2023-09-19T11:53:45;95937.19;;;25.74;76.74
29169;BME280;16219;42.864;23.360;2023-09-19T11:56:17;95933.16;;;25.89;71.34
29169;BME280;16219;42.864;23.360;2023-09-19T11:58:49;95940.25;;;25.76;68.72
29169;BME280;16219;42.864;23.360;2023-09-19T12:01:22;95936.28;;;25.88;65.76
29169;BME280;16219;42.864;23.360;2023-09-19T12:03:53;95933.78;;;25.70;65.70
29169;BME280;16219;42.864;23.360;2023-09-19T12:06:24;95925.38;;;25.61;67.69
29169;BME280;16219;42.864;23.360;2023-09-19T12:08:52;95916.06;;;25.65;69.47
29169;BME280;16219;42.864;23.360;2023-09-19T12:11:21;95898.03;;;25.59;72.74
29169;BME280;16219;42.864;23.360;2023-09-19T12:13:51;95909.53;;;25.63;74.02
29169;BME280;16219;42.864;23.360;2023-09-19T12:16:20;95907.19;;;25.65;72.36
29169;BME280;16219;42.864;23.360;2023-09-19T12:18:51;95915.44;;;25.88;75.64
29169;BME280;16219;42.864;23.360;2023-09-19T12:21:27;95909.41;;;26.04;67.23
29169;BME280;16219;42.864;23.360;2023-09-19T12:24:04;95911.28;;;26.07;73.63
29169;BME280;16219;42.864;23.360;2023-09-19T12:26:41;95909.72;;;26.10;70.40
29169;BME280;16219;42.864;23.360;2023-09-19T12:29:15;95914.00;;;26.34;64.73
29169;BME280;16219;42.864;23.360;2023-09-19T12:31:49;95898.72;;;26.21;61.89
29169;BME280;16219;42.864;23.360;2023-09-19T12:34:20;95911.28;;;26.34;64.44
29169;BME280;16219;42.864;23.360;2023-09-19T12:36:48;95901.69;;;26.57;65.73
29169;BME280;16219;42.864;23.360;2023-09-19T12:39:24;95896.94;;;26.84;66.08
29169;BME280;16219;42.864;23.360;2023-09-19T12:41:53;95880.50;;;26.75;63.11
29169;BME280;16219;42.864;23.360;2023-09-19T12:44:22;95878.66;;;26.92;64.69
29169;BME280;16219;42.864;23.360;2023-09-19T12:46:51;95892.88;;;26.96;68.10
29169;BME280;16219;42.864;23.360;2023-09-19T12:49:20;95886.13;;;26.84;58.49
29169;BME280;16219;42.864;23.360;2023-09-19T12:51:49;95868.25;;;26.90;58.17
29169;BME280;16219;42.864;23.360;2023-09-19T12:54:21;95867.97;;;27.05;58.77
29169;BME280;16219;42.864;23.360;2023-09-19T12:56:50;95859.03;;;27.08;60.92
29169;BME280;16219;42.864;23.360;2023-09-19T12:59:30;95866.75;;;27.29;60.33
29169;BME280;16219;42.864;23.360;2023-09-19T13:02:04;95867.84;;;27.52;60.54
29169;BME280;16219;42.864;23.360;2023-09-19T13:04:33;95859.38;;;27.50;62.30
29169;BME280;16219;42.864;23.360;2023-09-19T13:07:05;95862.00;;;27.73;63.98
29169;BME280;16219;42.864;23.360;2023-09-19T13:09:34;95871.00;;;27.86;62.55
29169;BME280;16219;42.864;23.360;2023-09-19T13:12:01;95858.63;;;27.85;59.27